Time;durP1;ratioP1;P1;durP2;ratioP2;P2;SDS_P1;SDS_P2;PMS_P1;PMS_P2;Temp;Humidity;BMP_temperature;BMP_pressure;BME280_temperature;BME280_humidity;BME280_pressure;Samples;Min_cycle;Max_cycle;Signal;HPM_P1;HPM_P2
2021/01/27 00:04:27;;;;;;;5.47;3.07;;;;;2.10;101145.00;;;;10523522;28;20714;-75
2021/01/27 00:09:29;;;;;;;3.80;2.63;;;;;2.00;101144.00;;;;10546325;28;20551;-75
2021/01/27 00:14:30;;;;;;;5.23;3.17;;;;;1.90;101125.00;;;;10532779;28;20253;-75
2021/01/27 00:19:31;;;;;;;3.20;2.73;;;;;1.90;101133.00;;;;10563604;28;20772;-75
2021/01/27 00:24:33;;;;;;;5.57;3.03;;;;;1.80;101136.00;;;;10528505;28;20245;-75
2021/01/27 00:29:34;;;;;;;7.37;3.70;;;;;1.90;101121.00;;;;10529398;28;20567;-75
2021/01/27 00:34:35;;;;;;;3.97;2.50;;;;;1.90;101126.00;;;;10546103;28;20704;-75
2021/01/27 00:39:37;;;;;;;7.30;3.30;;;;;1.90;101119.00;;;;10581074;28;20188;-76
2021/01/27 00:44:38;;;;;;;5.97;3.37;;;;;1.90;101119.00;;;;10552694;28;20216;-75
2021/01/27 00:49:39;;;;;;;4.13;3.07;;;;;1.90;101114.00;;;;10520438;28;20219;-75
2021/01/27 00:54:41;;;;;;;6.43;3.27;;;;;1.90;101094.00;;;;10583691;28;20200;-75
2021/01/27 00:59:43;;;;;;;5.13;3.17;;;;;1.90;101093.00;;;;10552611;28;20271;-76
2021/01/27 01:04:44;;;;;;;6.30;2.80;;;;;2.00;101081.00;;;;10509534;28;20197;-76
2021/01/27 01:09:46;;;;;;;4.80;3.03;;;;;2.00;101078.00;;;;10488691;28;20212;-76
2021/01/27 01:14:47;;;;;;;5.57;3.63;;;;;1.90;101072.00;;;;10509794;28;20196;-76
2021/01/27 01:19:48;;;;;;;5.37;3.20;;;;;1.80;101067.00;;;;10520780;28;20529;-76
2021/01/27 01:24:50;;;;;;;4.67;2.93;;;;;1.60;101047.00;;;;10551704;28;20248;-75
2021/01/27 01:29:51;;;;;;;4.40;2.97;;;;;1.50;101042.00;;;;10536299;28;20232;-75
2021/01/27 01:34:52;;;;;;;5.20;3.67;;;;;1.50;101024.00;;;;10504553;28;20231;-75
2021/01/27 01:39:53;;;;;;;5.97;3.57;;;;;1.40;101033.00;;;;10511128;28;20220;-75
2021/01/27 01:44:55;;;;;;;5.13;3.90;;;;;1.40;101014.00;;;;10510717;28;20211;-75
2021/01/27 01:49:56;;;;;;;5.40;3.67;;;;;1.30;101003.00;;;;10563511;28;20204;-75
2021/01/27 01:54:58;;;;;;;5.60;3.67;;;;;1.30;100967.00;;;;10585899;27;20654;-75
2021/01/27 02:00:20;;;;;;;5.50;3.43;;;;;1.30;100940.00;;;;10594713;27;21013;-75
2021/01/27 02:05:24;;;;;;;5.23;4.40;;;;;1.30;100931.00;;;;10527649;28;20223;-75
2021/01/27 02:10:26;;;;;;;6.13;4.73;;;;;1.30;100925.00;;;;10501142;28;20296;-75
2021/01/27 02:16:09;;;;;;;4.93;3.83;;;;;1.40;100923.00;;;;10544566;28;20251;-75
2021/01/27 02:21:30;;;;;;;4.43;3.13;;;;;1.40;100913.00;;;;10495776;27;20188;-75
2021/01/27 02:26:50;;;;;;;4.00;3.60;;;;;1.40;100899.00;;;;10610431;27;20191;-75
2021/01/27 02:31:51;;;;;;;5.87;4.00;;;;;1.50;100897.00;;;;10562247;27;20643;-75
2021/01/27 02:37:05;;;;;;;4.00;3.17;;;;;1.50;100911.00;;;;10551914;28;20229;-75
2021/01/27 02:42:22;;;;;;;4.90;3.00;;;;;1.50;100903.00;;;;10550057;28;20566;-75
2021/01/27 02:47:29;;;;;;;3.70;2.90;;;;;1.60;100878.00;;;;10523880;28;20193;-75
2021/01/27 02:52:36;;;;;;;3.93;2.90;;;;;1.60;100882.00;;;;10550029;27;20191;-75
2021/01/27 02:57:54;;;;;;;4.20;2.67;;;;;1.60;100866.00;;;;10609493;27;20215;-75
2021/01/27 03:03:07;;;;;;;2.40;2.20;;;;;1.60;100879.00;;;;10534881;27;20205;-75
2021/01/27 03:08:14;;;;;;;3.97;2.40;;;;;1.70;100844.00;;;;10524597;28;20215;-75
2021/01/27 03:13:15;;;;;;;2.73;1.93;;;;;1.70;100846.00;;;;10525030;28;20271;-75
2021/01/27 03:18:23;;;;;;;2.67;1.83;;;;;1.70;100833.00;;;;10523196;28;20189;-75
2021/01/27 03:23:46;;;;;;;2.30;1.70;;;;;1.80;100835.00;;;;10490276;28;20663;-75
2021/01/27 03:29:10;;;;;;;2.73;1.70;;;;;1.80;100811.00;;;;10489922;28;20250;-75
2021/01/27 03:34:23;;;;;;;1.57;1.47;;;;;1.90;100802.00;;;;10573116;28;20219;-75
2021/01/27 03:39:27;;;;;;;1.70;1.60;;;;;1.90;100798.00;;;;10548287;28;20211;-75
2021/01/27 03:44:36;;;;;;;2.40;1.70;;;;;1.90;100786.00;;;;10564128;28;20212;-75
2021/01/27 03:49:47;;;;;;;1.47;1.27;;;;;1.90;100773.00;;;;10540431;28;20541;-75
2021/01/27 03:54:57;;;;;;;2.87;1.57;;;;;2.00;100746.00;;;;10536152;28;20200;-75
2021/01/27 03:59:58;;;;;;;1.73;1.63;;;;;2.00;100739.00;;;;10545796;28;20245;-75
2021/01/27 04:05:02;;;;;;;1.83;1.50;;;;;1.90;100730.00;;;;10546310;28;20222;-75
2021/01/27 04:10:04;;;;;;;1.70;1.53;;;;;1.90;100721.00;;;;10546092;28;20300;-75
2021/01/27 04:15:06;;;;;;;2.20;1.40;;;;;1.90;100732.00;;;;10546384;28;20225;-75
2021/01/27 04:20:08;;;;;;;2.40;1.63;;;;;1.90;100739.00;;;;10513365;28;20239;-75
2021/01/27 04:25:10;;;;;;;3.97;1.70;;;;;1.90;100720.00;;;;10581012;27;20229;-75
2021/01/27 04:30:16;;;;;;;2.70;2.33;;;;;1.90;100695.00;;;;10569734;27;20550;-75
2021/01/27 04:35:19;;;;;;;2.20;2.00;;;;;1.90;100695.00;;;;10562513;28;20724;-75
2021/01/27 04:40:29;;;;;;;2.13;1.80;;;;;1.90;100691.00;;;;10545782;28;20188;-75
2021/01/27 04:45:31;;;;;;;1.47;1.23;;;;;1.90;100689.00;;;;10529442;28;20200;-75
2021/01/27 04:50:37;;;;;;;3.97;1.93;;;;;1.90;100686.00;;;;10529317;28;20231;-75
2021/01/27 04:55:54;;;;;;;4.10;2.53;;;;;1.90;100684.00;;;;10563117;28;20196;-75
2021/01/27 05:00:58;;;;;;;3.10;2.40;;;;;1.90;100689.00;;;;10581045;28;20284;-75
2021/01/27 05:06:04;;;;;;;3.80;2.30;;;;;1.90;100673.00;;;;10561885;28;20239;-75
2021/01/27 05:11:08;;;;;;;3.07;2.33;;;;;1.90;100653.00;;;;10522989;28;20238;-74
2021/01/27 05:16:22;;;;;;;2.70;2.40;;;;;2.00;100636.00;;;;10542014;28;20192;-75
2021/01/27 05:21:33;;;;;;;4.73;2.10;;;;;2.00;100653.00;;;;10556092;27;20237;-75
2021/01/27 05:26:40;;;;;;;3.40;2.70;;;;;2.00;100653.00;;;;10595218;27;20180;-75
2021/01/27 05:32:05;;;;;;;4.60;2.60;;;;;2.00;100643.00;;;;10547767;28;20227;-75
2021/01/27 05:37:32;;;;;;;6.20;2.87;;;;;2.00;100640.00;;;;10587375;28;20203;-75
2021/01/27 05:42:36;;;;;;;3.70;2.73;;;;;2.10;100631.00;;;;10568190;28;20192;-74
2021/01/27 05:47:38;;;;;;;5.40;3.00;;;;;2.00;100632.00;;;;10564724;28;20227;-75
2021/01/27 05:52:39;;;;;;;3.47;2.87;;;;;2.10;100626.00;;;;10566233;27;20191;-75
2021/01/27 05:57:42;;;;;;;3.63;3.07;;;;;2.10;100622.00;;;;10546872;27;20234;-75
2021/01/27 06:02:44;;;;;;;4.07;3.50;;;;;2.10;100620.00;;;;10561538;28;20253;-74
2021/01/27 06:07:45;;;;;;;6.67;3.80;;;;;2.10;100623.00;;;;10508921;28;20688;-75
2021/01/27 06:12:47;;;;;;;3.60;3.30;;;;;2.10;100614.00;;;;10545483;28;20249;-75
2021/01/27 06:17:49;;;;;;;5.37;3.87;;;;;2.10;100613.00;;;;10492895;28;20196;-74
2021/01/27 06:23:18;;;;;;;4.40;4.00;;;;;2.20;100614.00;;;;10539552;28;20196;-75
2021/01/27 06:28:22;;;;;;;4.40;3.87;;;;;2.20;100598.00;;;;10515256;28;20299;-75
2021/01/27 06:33:42;;;;;;;3.93;3.43;;;;;2.20;100583.00;;;;10502262;28;20196;-75
2021/01/27 06:38:52;;;;;;;8.73;3.53;;;;;2.30;100590.00;;;;10544284;28;20551;-75
2021/01/27 06:44:04;;;;;;;4.30;3.77;;;;;2.30;100607.00;;;;10534708;28;20211;-75
2021/01/27 06:49:30;;;;;;;4.73;3.80;;;;;2.30;100610.00;;;;10541846;28;20241;-75
2021/01/27 06:54:50;;;;;;;6.17;3.70;;;;;2.30;100628.00;;;;10522078;27;20778;-74
2021/01/27 07:00:12;;;;;;;8.13;5.40;;;;;2.30;100651.00;;;;10531902;28;20213;-74
2021/01/27 07:05:34;;;;;;;4.63;4.17;;;;;2.30;100642.00;;;;10526016;28;20646;-74
2021/01/27 07:10:50;;;;;;;4.07;3.63;;;;;2.30;100640.00;;;;10575318;28;20686;-74
2021/01/27 07:15:55;;;;;;;6.77;4.27;;;;;2.30;100640.00;;;;10539447;28;20934;-74
2021/01/27 07:21:17;;;;;;;7.67;3.70;;;;;2.30;100639.00;;;;10553933;28;20200;-76
2021/01/27 07:26:24;;;;;;;4.37;3.33;;;;;2.30;100637.00;;;;10537439;28;20552;-74
2021/01/27 07:31:47;;;;;;;5.43;4.10;;;;;2.40;100636.00;;;;10533230;28;20258;-75
2021/01/27 07:37:12;;;;;;;4.07;3.40;;;;;2.40;100619.00;;;;10516213;28;20691;-74
2021/01/27 07:42:51;;;;;;;4.77;3.30;;;;;2.40;100633.00;;;;10534840;28;20191;-74
2021/01/27 07:48:14;;;;;;;4.00;3.60;;;;;2.50;100638.00;;;;10541845;28;20593;-75
2021/01/27 07:53:18;;;;;;;7.20;3.77;;;;;2.50;100647.00;;;;10556670;27;20195;-74
2021/01/27 07:58:24;;;;;;;3.93;2.93;;;;;2.50;100648.00;;;;10541876;27;20253;-74
2021/01/27 08:03:35;;;;;;;7.00;4.27;;;;;2.50;100646.00;;;;10549556;28;20199;-74
2021/01/27 08:09:02;;;;;;;4.67;3.73;;;;;2.60;100646.00;;;;10543548;27;20692;-74
2021/01/27 08:14:05;;;;;;;5.33;3.73;;;;;2.60;100627.00;;;;10506990;28;20927;-74
2021/01/27 08:19:12;;;;;;;4.13;3.73;;;;;2.60;100625.00;;;;10563107;27;20212;-74
2021/01/27 08:24:33;;;;;;;4.87;3.63;;;;;2.70;100614.00;;;;10523852;28;20188;-75
2021/01/27 08:29:38;;;;;;;4.50;3.80;;;;;2.90;100626.00;;;;10555389;28;20203;-74
2021/01/27 08:34:44;;;;;;;5.97;4.87;;;;;3.00;100644.00;;;;10545716;28;20321;-75
2021/01/27 08:39:46;;;;;;;7.63;5.30;;;;;3.10;100648.00;;;;10530817;28;20195;-74
2021/01/27 08:44:48;;;;;;;5.00;4.07;;;;;3.20;100646.00;;;;10517309;28;20723;-74
2021/01/27 08:49:58;;;;;;;6.67;5.40;;;;;3.10;100666.00;;;;10540326;28;20573;-74
2021/01/27 08:55:03;;;;;;;8.00;5.73;;;;;3.20;100676.00;;;;10553849;28;20275;-74
2021/01/27 09:00:13;;;;;;;6.93;5.40;;;;;3.20;100669.00;;;;10511460;27;20230;-74
2021/01/27 09:05:24;;;;;;;9.43;7.37;;;;;3.20;100675.00;;;;10560457;27;20197;-74
2021/01/27 09:10:40;;;;;;;9.57;7.37;;;;;3.50;100657.00;;;;10579624;27;20226;-74
2021/01/27 09:15:41;;;;;;;9.00;7.60;;;;;3.60;100667.00;;;;10586643;27;20180;-74
2021/01/27 09:20:43;;;;;;;10.10;7.90;;;;;3.80;100668.00;;;;10571229;27;20196;-74
2021/01/27 09:25:49;;;;;;;11.10;7.50;;;;;3.70;100691.00;;;;10578650;28;20223;-74
2021/01/27 09:30:55;;;;;;;9.47;8.13;;;;;3.80;100683.00;;;;10586243;28;20894;-75
2021/01/27 09:36:07;;;;;;;14.83;9.43;;;;;3.90;100682.00;;;;10552457;28;20231;-74
2021/01/27 09:41:12;;;;;;;12.10;9.93;;;;;3.90;100690.00;;;;10527599;28;20239;-75
2021/01/27 09:46:29;;;;;;;13.57;10.90;;;;;4.10;100685.00;;;;10516118;27;20216;-75
2021/01/27 09:51:32;;;;;;;18.13;10.80;;;;;4.60;100681.00;;;;10549160;27;20671;-74
2021/01/27 09:56:35;;;;;;;15.27;11.37;;;;;5.00;100693.00;;;;10605740;27;20299;-75
2021/01/27 10:01:45;;;;;;;16.10;11.80;;;;;4.80;100687.00;;;;10565656;27;20195;-74
2021/01/27 10:06:54;;;;;;;17.63;12.63;;;;;4.70;100691.00;;;;10599489;27;20191;-74
2021/01/27 10:12:06;;;;;;;17.70;11.53;;;;;4.70;100712.00;;;;10551222;27;20231;-74
2021/01/27 10:17:10;;;;;;;18.07;11.17;;;;;4.70;100707.00;;;;10537836;27;20241;-74
2021/01/27 10:22:12;;;;;;;17.67;12.47;;;;;4.80;100713.00;;;;10578235;27;20287;-74
2021/01/27 10:27:20;;;;;;;78.13;41.50;;;;;4.60;100716.00;;;;10542845;27;20184;-75
2021/01/27 10:32:31;;;;;;;26.93;18.80;;;;;4.60;100722.00;;;;10555141;27;20282;-74
2021/01/27 10:37:38;;;;;;;18.20;13.10;;;;;4.60;100723.00;;;;10541892;27;20279;-74
2021/01/27 10:42:42;;;;;;;21.43;14.27;;;;;4.60;100735.00;;;;10576272;27;20247;-75
2021/01/27 10:47:44;;;;;;;18.13;11.37;;;;;4.70;100723.00;;;;10570648;27;20196;-74
2021/01/27 10:52:49;;;;;;;17.73;12.83;;;;;4.80;100722.00;;;;10580426;27;20216;-74
2021/01/27 10:57:50;;;;;;;19.43;11.93;;;;;4.70;100723.00;;;;10574063;27;20237;-74
2021/01/27 11:02:51;;;;;;;17.17;11.63;;;;;4.90;100714.00;;;;10566074;27;20351;-74
2021/01/27 11:07:53;;;;;;;19.87;13.93;;;;;4.90;100729.00;;;;10564465;27;20696;-75
2021/01/27 11:12:56;;;;;;;20.87;13.63;;;;;5.10;100716.00;;;;10573869;27;20198;-74
2021/01/27 11:17:57;;;;;;;22.97;15.03;;;;;5.30;100710.00;;;;10566447;27;20274;-74
2021/01/27 11:22:58;;;;;;;18.03;11.67;;;;;5.40;100714.00;;;;10561844;28;20226;-75
2021/01/27 11:28:02;;;;;;;19.43;12.20;;;;;5.40;100717.00;;;;10601672;27;20271;-75
2021/01/27 11:33:04;;;;;;;18.70;13.13;;;;;5.40;100723.00;;;;10555764;28;20199;-75
2021/01/27 11:38:05;;;;;;;18.60;11.50;;;;;5.40;100725.00;;;;10573131;27;20195;-74
2021/01/27 11:43:06;;;;;;;17.13;10.90;;;;;5.60;100716.00;;;;10552965;27;20273;-74
2021/01/27 11:48:08;;;;;;;17.20;10.90;;;;;5.70;100716.00;;;;10559118;27;20303;-74
2021/01/27 11:53:09;;;;;;;19.77;11.50;;;;;5.70;100725.00;;;;10572465;27;20202;-74
2021/01/27 11:58:11;;;;;;;21.20;11.83;;;;;6.00;100717.00;;;;10561308;28;20184;-74
2021/01/27 12:03:21;;;;;;;17.17;11.50;;;;;5.90;100721.00;;;;10547636;27;20196;-74
2021/01/27 12:08:23;;;;;;;24.97;13.47;;;;;5.90;100726.00;;;;10555710;28;20212;-75
2021/01/27 12:13:24;;;;;;;25.43;15.03;;;;;5.80;100717.00;;;;10594106;27;20195;-74
2021/01/27 12:18:26;;;;;;;21.20;12.00;;;;;5.90;100718.00;;;;10580695;27;20245;-75
2021/01/27 12:23:27;;;;;;;19.10;12.33;;;;;5.90;100718.00;;;;10562818;27;20188;-75
2021/01/27 12:28:29;;;;;;;16.77;11.47;;;;;5.80;100722.00;;;;10591457;27;20206;-75
2021/01/27 12:33:30;;;;;;;20.40;11.37;;;;;5.80;100729.00;;;;10553772;27;20656;-75
2021/01/27 12:38:32;;;;;;;24.03;13.90;;;;;6.10;100711.00;;;;10561954;27;20238;-75
2021/01/27 12:43:33;;;;;;;23.53;13.33;;;;;6.40;100700.00;;;;10583933;28;20268;-75
2021/01/27 12:48:35;;;;;;;26.30;14.10;;;;;6.30;100707.00;;;;10534779;28;20773;-75
2021/01/27 12:53:37;;;;;;;26.30;13.60;;;;;6.10;100714.00;;;;10547912;28;20283;-75
2021/01/27 12:58:39;;;;;;;27.53;17.50;;;;;6.00;100703.00;;;;10561093;28;20180;-75
2021/01/27 13:03:41;;;;;;;26.53;17.43;;;;;5.90;100709.00;;;;10533785;28;20206;-74
2021/01/27 13:08:46;;;;;;;28.87;16.93;;;;;5.80;100712.00;;;;10547690;28;20197;-74
2021/01/27 13:13:47;;;;;;;29.73;16.93;;;;;5.80;100722.00;;;;10553260;28;20191;-74
2021/01/27 13:18:48;;;;;;;36.40;18.67;;;;;5.90;100712.00;;;;10581103;28;20219;-74
2021/01/27 13:23:50;;;;;;;33.13;19.20;;;;;5.90;100723.00;;;;10561142;28;20220;-74
2021/01/27 13:28:51;;;;;;;35.90;19.27;;;;;5.90;100737.00;;;;10519373;28;20211;-74
2021/01/27 13:33:52;;;;;;;38.73;20.57;;;;;5.90;100742.00;;;;10518582;27;20223;-74
2021/01/27 13:38:53;;;;;;;40.20;22.57;;;;;5.90;100748.00;;;;10572589;28;20184;-74
2021/01/27 13:43:55;;;;;;;43.57;23.00;;;;;6.00;100746.00;;;;10567293;28;20223;-74
2021/01/27 13:48:56;;;;;;;36.83;19.93;;;;;6.00;100740.00;;;;10531390;28;20204;-74
2021/01/27 13:53:57;;;;;;;49.53;23.90;;;;;6.10;100712.00;;;;10541000;27;20230;-74
2021/01/27 13:58:59;;;;;;;45.17;22.37;;;;;6.20;100719.00;;;;10575215;27;20195;-74
2021/01/27 14:04:02;;;;;;;43.93;22.80;;;;;6.30;100717.00;;;;10596598;27;20864;-74
2021/01/27 14:09:03;;;;;;;44.70;22.10;;;;;6.40;100726.00;;;;10601198;27;20633;-74
2021/01/27 14:14:05;;;;;;;48.83;22.23;;;;;6.50;100728.00;;;;10601555;27;20211;-74
2021/01/27 14:19:06;;;;;;;49.40;23.97;;;;;6.70;100722.00;;;;10529630;28;20521;-74
2021/01/27 14:24:07;;;;;;;49.53;24.57;;;;;6.90;100724.00;;;;10574970;27;20628;-74
2021/01/27 14:29:09;;;;;;;49.10;24.63;;;;;7.10;100727.00;;;;10557285;27;20196;-74
2021/01/27 14:34:10;;;;;;;52.33;24.80;;;;;7.10;100725.00;;;;10536773;27;20188;-75
2021/01/27 14:39:12;;;;;;;46.97;22.93;;;;;7.10;100731.00;;;;10539683;28;20188;-74
2021/01/27 14:44:15;;;;;;;46.97;25.33;;;;;7.30;100734.00;;;;10605517;27;20204;-75
2021/01/27 14:49:17;;;;;;;50.23;23.53;;;;;7.40;100726.00;;;;10521046;28;20235;-74
2021/01/27 14:54:18;;;;;;;45.80;22.97;;;;;7.40;100725.00;;;;10520167;28;20291;-74
2021/01/27 14:59:20;;;;;;;49.00;25.20;;;;;7.10;100724.00;;;;10531036;28;20184;-75
2021/01/27 15:04:21;;;;;;;47.77;23.47;;;;;7.00;100718.00;;;;10573926;27;20204;-74
2021/01/27 15:09:23;;;;;;;46.17;23.37;;;;;6.80;100726.00;;;;10521952;28;20208;-74
2021/01/27 15:14:24;;;;;;;45.17;22.70;;;;;6.70;100727.00;;;;10539290;28;20192;-74
2021/01/27 15:19:25;;;;;;;48.40;23.77;;;;;6.70;100731.00;;;;10546491;28;20196;-75
2021/01/27 15:24:27;;;;;;;49.47;24.13;;;;;6.60;100742.00;;;;10575710;27;20187;-75
2021/01/27 15:29:29;;;;;;;49.13;22.73;;;;;6.50;100745.00;;;;10578794;27;20259;-75
2021/01/27 15:34:30;;;;;;;48.27;24.57;;;;;6.50;100731.00;;;;10488873;28;20200;-75
2021/01/27 15:39:33;;;;;;;52.10;23.67;;;;;6.50;100736.00;;;;10541650;28;20184;-75
2021/01/27 15:44:34;;;;;;;45.77;23.90;;;;;6.50;100731.00;;;;10545078;28;20212;-76
2021/01/27 15:49:36;;;;;;;50.03;23.80;;;;;6.50;100743.00;;;;10562793;28;20228;-76
2021/01/27 15:54:38;;;;;;;49.27;24.70;;;;;6.40;100743.00;;;;10549560;28;20250;-76
2021/01/27 15:59:39;;;;;;;48.83;23.33;;;;;6.40;100746.00;;;;10508049;28;20662;-75
2021/01/27 16:04:42;;;;;;;51.67;23.70;;;;;6.40;100740.00;;;;10535226;28;20282;-75
2021/01/27 16:09:43;;;;;;;50.80;24.13;;;;;6.30;100750.00;;;;10499109;28;20317;-75
2021/01/27 16:14:45;;;;;;;51.53;24.03;;;;;6.30;100752.00;;;;10545147;28;20204;-75
2021/01/27 16:19:46;;;;;;;51.13;24.23;;;;;6.20;100739.00;;;;10527811;28;20196;-75
2021/01/27 16:24:47;;;;;;;61.73;27.07;;;;;6.20;100738.00;;;;10557132;28;20219;-75
2021/01/27 16:29:50;;;;;;;59.40;29.73;;;;;6.20;100750.00;;;;10544397;28;20223;-75
2021/01/27 16:34:51;;;;;;;87.07;43.33;;;;;6.20;100745.00;;;;10543335;28;20245;-75
2021/01/27 16:39:53;;;;;;;60.70;27.57;;;;;6.10;100749.00;;;;10536802;27;20183;-75
2021/01/27 16:44:54;;;;;;;57.47;26.70;;;;;6.10;100748.00;;;;10556720;28;20612;-75
2021/01/27 16:49:55;;;;;;;57.70;26.10;;;;;6.10;100752.00;;;;10597387;28;20783;-76
2021/01/27 16:54:57;;;;;;;63.63;27.83;;;;;6.20;100749.00;;;;10570781;28;20611;-75
2021/01/27 16:59:58;;;;;;;59.30;30.50;;;;;6.20;100746.00;;;;10557902;28;20188;-77
2021/01/27 17:05:02;;;;;;;63.43;27.37;;;;;6.20;100739.00;;;;10568467;28;20654;-75
2021/01/27 17:10:05;;;;;;;52.20;27.00;;;;;6.20;100751.00;;;;10570824;27;20207;-75
2021/01/27 17:15:08;;;;;;;55.53;26.13;;;;;6.20;100751.00;;;;10578688;27;20219;-75
2021/01/27 17:20:12;;;;;;;60.80;27.03;;;;;6.20;100752.00;;;;10556442;27;20188;-75
2021/01/27 17:25:16;;;;;;;59.37;25.40;;;;;6.20;100758.00;;;;10545691;27;20238;-75
2021/01/27 17:30:20;;;;;;;54.43;24.53;;;;;6.20;100749.00;;;;10526720;27;20239;-75
2021/01/27 17:35:32;;;;;;;60.00;26.00;;;;;6.20;100761.00;;;;10598952;27;20189;-75
2021/01/27 17:40:33;;;;;;;61.30;27.93;;;;;6.10;100768.00;;;;10545363;28;20235;-75
2021/01/27 17:45:36;;;;;;;66.30;27.60;;;;;6.10;100762.00;;;;10524127;27;20208;-75
2021/01/27 17:50:37;;;;;;;59.00;29.13;;;;;6.10;100762.00;;;;10523196;28;20201;-75
2021/01/27 17:55:38;;;;;;;58.33;27.30;;;;;6.10;100755.00;;;;10539368;28;20283;-75
2021/01/27 18:00:40;;;;;;;59.87;26.57;;;;;6.10;100746.00;;;;10531090;28;20184;-75
2021/01/27 18:05:42;;;;;;;64.67;28.70;;;;;6.10;100742.00;;;;10585323;28;20223;-75
2021/01/27 18:10:43;;;;;;;59.37;26.90;;;;;6.10;100742.00;;;;10550909;28;20201;-75
2021/01/27 18:15:45;;;;;;;52.60;26.63;;;;;6.10;100744.00;;;;10555614;28;20215;-75
2021/01/27 18:20:47;;;;;;;56.63;26.57;;;;;6.10;100740.00;;;;10536302;28;20238;-75
2021/01/27 18:25:50;;;;;;;62.33;29.13;;;;;6.10;100748.00;;;;10532715;28;20241;-75
2021/01/27 18:30:51;;;;;;;65.40;27.00;;;;;6.10;100738.00;;;;10529507;28;20264;-75
2021/01/27 18:35:57;;;;;;;72.20;30.03;;;;;6.20;100738.00;;;;10549102;28;20226;-75
2021/01/27 18:41:04;;;;;;;61.40;27.90;;;;;6.20;100728.00;;;;10552638;28;20208;-74
2021/01/27 18:46:05;;;;;;;58.53;27.30;;;;;6.20;100726.00;;;;10514243;28;20262;-75
2021/01/27 18:51:15;;;;;;;75.60;30.80;;;;;6.20;100726.00;;;;10580170;27;20295;-75
2021/01/27 18:56:16;;;;;;;67.20;28.57;;;;;6.30;100708.00;;;;10548069;28;20189;-75
2021/01/27 19:01:18;;;;;;;58.77;27.00;;;;;6.30;100714.00;;;;10488192;28;20254;-75
2021/01/27 19:06:21;;;;;;;64.47;27.33;;;;;6.30;100707.00;;;;10549268;27;20275;-74
2021/01/27 19:11:23;;;;;;;61.10;26.20;;;;;6.30;100713.00;;;;10532749;27;20197;-74
2021/01/27 19:16:25;;;;;;;63.93;27.00;;;;;6.20;100719.00;;;;10508781;27;20196;-74
2021/01/27 19:21:27;;;;;;;57.70;24.80;;;;;6.30;100722.00;;;;10506919;27;20712;-74
2021/01/27 19:26:28;;;;;;;58.70;24.90;;;;;6.30;100724.00;;;;10524567;27;20185;-74
2021/01/27 19:31:30;;;;;;;60.03;24.63;;;;;6.30;100737.00;;;;10511550;27;20204;-74
2021/01/27 19:36:32;;;;;;;54.67;23.70;;;;;6.30;100735.00;;;;10526131;27;20235;-74
2021/01/27 19:41:35;;;;;;;61.10;24.93;;;;;6.40;100725.00;;;;10508145;27;20192;-74
2021/01/27 19:46:38;;;;;;;51.50;23.63;;;;;6.40;100732.00;;;;10553320;27;20753;-74
2021/01/27 19:51:40;;;;;;;51.53;23.17;;;;;6.40;100733.00;;;;10535992;27;20204;-74
2021/01/27 19:56:47;;;;;;;53.43;21.47;;;;;6.40;100718.00;;;;10513979;27;20215;-74
2021/01/27 20:01:50;;;;;;;56.77;22.73;;;;;6.40;100713.00;;;;10504619;27;20251;-74
2021/01/27 20:06:52;;;;;;;53.23;21.13;;;;;6.40;100716.00;;;;10537760;27;20206;-74
2021/01/27 20:11:53;;;;;;;62.00;22.67;;;;;6.40;100719.00;;;;10504578;28;20281;-74
2021/01/27 20:16:55;;;;;;;48.47;22.13;;;;;6.30;100719.00;;;;10533924;27;20185;-74
2021/01/27 20:21:58;;;;;;;57.63;22.90;;;;;6.30;100718.00;;;;10557760;27;20535;-74
2021/01/27 20:26:59;;;;;;;68.07;23.63;;;;;6.40;100731.00;;;;10552583;27;20662;-74
2021/01/27 20:32:03;;;;;;;57.03;22.30;;;;;6.30;100737.00;;;;10537955;27;20208;-74
2021/01/27 20:37:04;;;;;;;71.20;25.17;;;;;6.40;100738.00;;;;10536875;28;20200;-74
2021/01/27 20:42:05;;;;;;;62.70;24.03;;;;;6.40;100729.00;;;;10513531;28;20196;-74
2021/01/27 20:47:07;;;;;;;66.53;23.90;;;;;6.40;100726.00;;;;10540894;28;20212;-74
2021/01/27 20:52:09;;;;;;;72.97;23.43;;;;;6.40;100713.00;;;;10538229;28;20269;-74
2021/01/27 20:57:11;;;;;;;57.37;21.90;;;;;6.40;100711.00;;;;10552557;28;20190;-74
2021/01/27 21:02:12;;;;;;;65.27;23.13;;;;;6.40;100696.00;;;;10539106;28;20204;-75
2021/01/27 21:07:14;;;;;;;68.87;23.07;;;;;6.30;100702.00;;;;10517116;28;20247;-75
2021/01/27 21:12:15;;;;;;;61.50;22.13;;;;;6.40;100702.00;;;;10556222;28;20196;-75
2021/01/27 21:17:17;;;;;;;69.40;24.77;;;;;6.40;100709.00;;;;10557503;28;20176;-75
2021/01/27 21:22:18;;;;;;;73.53;24.37;;;;;6.40;100695.00;;;;10555701;28;20193;-75
2021/01/27 21:27:19;;;;;;;63.87;22.17;;;;;6.40;100697.00;;;;10523790;28;20223;-75
2021/01/27 21:32:21;;;;;;;59.30;22.37;;;;;6.40;100693.00;;;;10555938;28;20201;-75
2021/01/27 21:37:23;;;;;;;63.93;22.67;;;;;6.40;100694.00;;;;10553592;28;20185;-75
2021/01/27 21:42:24;;;;;;;57.17;22.53;;;;;6.50;100681.00;;;;10539672;28;20219;-74
2021/01/27 21:47:25;;;;;;;55.50;22.00;;;;;6.50;100685.00;;;;10537794;28;20262;-75
2021/01/27 21:52:27;;;;;;;57.53;21.97;;;;;6.50;100704.00;;;;10526052;28;20798;-75
2021/01/27 21:57:28;;;;;;;65.47;22.23;;;;;6.50;100692.00;;;;10530034;27;20208;-75
2021/01/27 22:02:29;;;;;;;60.30;23.33;;;;;6.50;100686.00;;;;10537498;27;20200;-74
2021/01/27 22:07:32;;;;;;;55.97;20.77;;;;;6.50;100689.00;;;;10519487;27;20185;-75
2021/01/27 22:12:33;;;;;;;57.33;22.10;;;;;6.50;100685.00;;;;10529096;27;20205;-74
2021/01/27 22:17:35;;;;;;;54.70;20.67;;;;;6.50;100674.00;;;;10537330;27;20244;-75
2021/01/27 22:22:37;;;;;;;54.27;19.17;;;;;6.50;100687.00;;;;10523406;28;20188;-75
2021/01/27 22:27:38;;;;;;;44.70;19.77;;;;;6.50;100683.00;;;;10516249;28;20188;-75
2021/01/27 22:32:40;;;;;;;48.93;20.10;;;;;6.50;100672.00;;;;10533034;28;20249;-75
2021/01/27 22:37:41;;;;;;;38.73;18.33;;;;;6.50;100680.00;;;;10553900;28;20271;-75
2021/01/27 22:42:43;;;;;;;43.57;17.93;;;;;6.50;100679.00;;;;10514964;27;20204;-75
2021/01/27 22:47:45;;;;;;;37.33;17.43;;;;;6.50;100667.00;;;;10512052;28;20196;-75
2021/01/27 22:52:48;;;;;;;39.40;18.03;;;;;6.50;100650.00;;;;10514076;28;20213;-75
2021/01/27 22:57:50;;;;;;;39.63;19.83;;;;;6.50;100654.00;;;;10527308;27;20199;-74
2021/01/27 23:02:52;;;;;;;38.93;16.90;;;;;6.50;100632.00;;;;10539795;28;20200;-75
2021/01/27 23:07:54;;;;;;;34.67;16.90;;;;;6.50;100630.00;;;;10524532;28;20207;-75
2021/01/27 23:12:57;;;;;;;31.40;14.83;;;;;6.50;100620.00;;;;10526782;28;20224;-75
2021/01/27 23:17:59;;;;;;;29.00;16.03;;;;;6.40;100617.00;;;;10529950;28;20686;-75
2021/01/27 23:23:08;;;;;;;33.17;15.77;;;;;6.50;100608.00;;;;10528621;28;20234;-75
2021/01/27 23:28:10;;;;;;;34.20;16.27;;;;;6.40;100592.00;;;;10565652;28;20203;-75
2021/01/27 23:33:16;;;;;;;31.27;16.50;;;;;6.50;100610.00;;;;10531145;28;20200;-75
2021/01/27 23:38:19;;;;;;;27.73;14.63;;;;;6.50;100607.00;;;;10547756;28;21013;-75
2021/01/27 23:43:21;;;;;;;24.70;14.00;;;;;6.50;100604.00;;;;10563936;28;20224;-75
2021/01/27 23:48:23;;;;;;;26.67;14.33;;;;;6.50;100610.00;;;;10514241;28;20211;-75
2021/01/27 23:53:25;;;;;;;24.37;13.60;;;;;6.50;100591.00;;;;10546866;28;20570;-74
2021/01/27 23:58:27;;;;;;;23.13;12.13;;;;;6.50;100589.00;;;;10563895;28;20188;-75
